Time;durP1;ratioP1;P1;durP2;ratioP2;P2;SDS_P1;SDS_P2;PMS_P1;PMS_P2;Temp;Humidity;BMP_temperature;BMP_pressure;BME280_temperature;BME280_humidity;BME280_pressure;Samples;Min_cycle;Max_cycle;Signal;HPM_P1;HPM_P2
2022/09/13 00:01:12;;;;;;;;;5.00;5.00;;;;;24.20;48.91;100495.44;4980323;28;45547;-68
2022/09/13 00:03:38;;;;;;;;;6.00;6.00;;;;;24.21;48.94;100496.34;4980229;28;45663;-68
2022/09/13 00:06:14;;;;;;;;;5.67;5.67;;;;;24.18;49.28;100492.03;4980613;28;45375;-69
2022/09/13 00:08:40;;;;;;;;;9.33;5.33;;;;;24.21;49.22;100494.50;4978757;28;45720;-69
2022/09/13 00:11:06;;;;;;;;;5.33;5.33;;;;;24.21;49.19;100497.19;4980336;28;45585;-72
2022/09/13 00:13:32;;;;;;;;;7.67;7.67;;;;;24.22;49.07;100490.03;4980704;28;45424;-78
2022/09/13 00:16:00;;;;;;;;;8.00;5.67;;;;;24.21;49.35;100497.19;4977374;28;45439;-78
2022/09/13 00:18:25;;;;;;;;;7.33;7.33;;;;;24.18;49.33;100496.50;4978510;28;45959;-75
2022/09/13 00:20:51;;;;;;;;;9.67;7.33;;;;;24.19;49.63;100507.13;4974800;28;45368;-75
2022/09/13 00:23:17;;;;;;;;;8.67;7.00;;;;;24.18;49.57;100496.50;4977472;28;45439;-75
2022/09/13 00:25:43;;;;;;;;;9.67;8.00;;;;;24.14;49.49;100490.47;4975657;28;45717;-78
2022/09/13 00:28:08;;;;;;;;;7.33;7.00;;;;;24.11;49.35;100488.00;4976726;28;45400;-71
2022/09/13 00:30:34;;;;;;;;;7.33;5.67;;;;;24.22;49.39;100501.59;4977492;28;45369;-69
2022/09/13 00:33:03;;;;;;;;;8.67;6.67;;;;;24.15;49.15;100485.97;4976848;28;45365;-74
2022/09/13 00:35:30;;;;;;;;;6.00;6.00;;;;;24.10;49.69;100478.22;4976832;28;45446;-78
2022/09/13 00:37:57;;;;;;;;;6.67;6.33;;;;;24.01;49.64;100476.09;4976276;28;45313;-72
2022/09/13 00:40:23;;;;;;;;;7.33;7.00;;;;;24.07;50.31;100481.94;4980730;28;45512;-72
2022/09/13 00:42:48;;;;;;;;;6.33;6.00;;;;;24.04;50.00;100478.59;4978406;28;45401;-82
2022/09/13 00:45:16;;;;;;;;;7.00;6.67;;;;;23.99;50.07;100464.59;4977009;28;45362;-79
2022/09/13 00:47:52;;;;;;;;;7.00;7.00;;;;;23.86;50.21;100451.09;4975966;28;47347;-77
2022/09/13 00:50:38;;;;;;;;;9.67;8.67;;;;;23.88;50.15;100455.41;4965680;28;45639;-71
2022/09/13 00:53:12;;;;;;;;;9.00;7.33;;;;;23.89;50.56;100461.59;4986435;28;45442;-71
2022/09/13 00:55:52;;;;;;;;;9.33;7.67;;;;;23.85;50.25;100460.06;4979036;28;45526;-69
2022/09/13 00:58:28;;;;;;;;;7.33;7.33;;;;;23.81;50.05;100458.53;4968243;28;46233;-75
2022/09/13 01:00:58;;;;;;;;;7.00;6.00;;;;;23.86;50.56;100473.34;4991814;28;45414;-75
2022/09/13 01:03:29;;;;;;;;;10.00;7.00;;;;;23.84;50.37;100475.25;4975090;28;45512;-71
2022/09/13 01:06:06;;;;;;;;;6.67;6.33;;;;;23.77;50.46;100454.28;4982289;28;45690;-70
2022/09/13 01:08:36;;;;;;;;;7.33;7.00;;;;;23.89;50.06;100461.59;4966233;28;47023;-71
2022/09/13 01:11:04;;;;;;;;;7.33;7.33;;;;;23.84;50.25;100453.00;4974256;28;45665;-68
2022/09/13 01:13:32;;;;;;;;;7.00;7.00;;;;;23.91;49.98;100455.22;4975945;28;45460;-81
2022/09/13 01:16:00;;;;;;;;;9.33;9.00;;;;;23.79;49.59;100442.56;4976684;28;45535;-69
2022/09/13 01:18:25;;;;;;;;;10.33;9.00;;;;;23.86;50.28;100446.59;4991313;28;48597;-74
2022/09/13 01:21:29;;;;;;;;;8.67;8.67;;;;;23.82;49.93;100446.88;4992476;28;45498;-72
2022/09/13 01:24:41;;;;;;;;;8.00;8.00;;;;;23.76;50.20;100444.56;4978776;28;45451;-68
2022/09/13 01:27:30;;;;;;;;;8.67;8.67;;;;;23.70;50.45;100427.88;4993627;28;45428;-70
2022/09/13 01:30:14;;;;;;;;;11.67;11.00;;;;;23.78;50.00;100442.66;4976471;28;45353;-70
2022/09/13 01:33:01;;;;;;;;;11.00;10.00;;;;;23.79;50.48;100437.22;4976681;28;45503;-70
2022/09/13 01:35:35;;;;;;;;;9.33;8.00;;;;;23.79;50.42;100441.69;4979834;28;45360;-74
2022/09/13 01:38:40;;;;;;;;;13.00;9.33;;;;;23.73;50.29;100432.19;4976239;28;45480;-68
2022/09/13 01:41:11;;;;;;;;;13.33;10.00;;;;;23.74;50.44;100433.09;4988624;28;46212;-76
2022/09/13 01:43:57;;;;;;;;;11.00;9.67;;;;;23.76;50.51;100428.50;4981275;28;45460;-73
2022/09/13 01:46:44;;;;;;;;;8.67;7.00;;;;;23.74;50.54;100431.28;4974096;28;45912;-81
2022/09/13 01:49:14;;;;;;;;;13.00;9.00;;;;;23.74;50.28;100422.41;4981996;28;45491;-78
2022/09/13 01:51:51;;;;;;;;;7.67;6.67;;;;;23.70;50.73;100419.88;4981229;28;46190;-75
2022/09/13 01:54:28;;;;;;;;;7.67;7.67;;;;;23.73;50.76;100425.97;4980852;28;45412;-77
2022/09/13 01:57:25;;;;;;;;;12.33;10.00;;;;;23.58;50.82;100399.16;4981297;28;45418;-79
2022/09/13 02:00:13;;;;;;;;;10.33;9.33;;;;;23.50;50.63;100402.28;4983066;28;45431;-71
2022/09/13 02:02:51;;;;;;;;;13.00;9.33;;;;;23.58;50.72;100403.66;4981850;28;46353;-68
2022/09/13 02:05:21;;;;;;;;;11.33;10.33;;;;;23.63;50.41;100418.50;4986364;28;45575;-81
2022/09/13 02:08:00;;;;;;;;;8.33;8.33;;;;;23.57;50.99;100400.13;4983988;28;45397;-80
2022/09/13 02:10:35;;;;;;;;;10.00;10.00;;;;;23.58;50.56;100403.66;4982450;28;45381;-85
2022/09/13 02:13:04;;;;;;;;;11.00;9.67;;;;;23.63;50.68;100405.13;5000553;28;46240;-81
2022/09/13 02:15:40;;;;;;;;;10.00;10.00;;;;;23.58;50.81;100409.84;4982952;28;45356;-77
2022/09/13 02:18:16;;;;;;;;;11.00;11.00;;;;;23.60;50.65;100401.75;4981092;28;45590;-72
2022/09/13 02:20:47;;;;;;;;;13.00;10.00;;;;;23.58;50.83;100406.34;4983341;28;45344;-86
2022/09/13 02:23:22;;;;;;;;;10.67;10.67;;;;;23.52;50.95;100394.19;4978927;28;47958;-73
2022/09/13 02:25:52;;;;;;;;;10.67;9.33;;;;;23.38;50.92;100386.09;4980394;28;45628;-70
2022/09/13 02:28:26;;;;;;;;;10.00;9.33;;;;;23.47;50.94;100399.78;4980752;28;45782;-69
2022/09/13 02:30:55;;;;;;;;;11.00;9.67;;;;;23.36;51.12;100391.53;4980885;28;45691;-70
2022/09/13 02:33:30;;;;;;;;;11.00;7.00;;;;;23.32;50.78;100381.94;4977934;28;45571;-73
2022/09/13 02:36:09;;;;;;;;;11.67;9.67;;;;;23.36;51.21;100394.19;4978321;28;45360;-72
2022/09/13 02:38:48;;;;;;;;;11.00;9.33;;;;;23.25;50.99;100381.47;4977161;28;45614;-69
2022/09/13 02:41:26;;;;;;;;;8.67;8.67;;;;;23.29;51.51;100391.00;4976844;28;45485;-70
2022/09/13 02:44:02;;;;;;;;;9.00;8.00;;;;;23.25;51.71;100392.16;4971368;28;46237;-69
2022/09/13 02:46:35;;;;;;;;;11.33;8.00;;;;;23.24;51.41;100393.06;4968640;28;45420;-72
2022/09/13 02:49:25;;;;;;;;;9.33;8.67;;;;;23.18;51.39;100395.22;4975753;28;45417;-69
2022/09/13 02:51:57;;;;;;;;;6.67;4.00;;;;;23.15;51.77;100388.25;4973793;28;45306;-72
2022/09/13 02:54:54;;;;;;;;;8.67;6.00;;;;;23.12;51.80;100380.41;4977418;28;46188;-69
2022/09/13 02:57:30;;;;;;;;;8.00;6.67;;;;;23.03;51.42;100373.75;4979705;28;45234;-78
2022/09/13 02:59:55;;;;;;;;;6.67;5.67;;;;;23.08;51.72;100374.34;4980510;28;45394;-77
2022/09/13 03:02:28;;;;;;;;;5.33;5.33;;;;;23.07;51.75;100377.13;4973603;28;45476;-69
2022/09/13 03:04:54;;;;;;;;;5.67;5.67;;;;;23.10;51.41;100382.31;4968980;28;46590;-68
2022/09/13 03:07:19;;;;;;;;;6.00;5.00;;;;;23.15;51.31;100384.72;4978257;28;45812;-71
2022/09/13 03:09:51;;;;;;;;;6.00;6.00;;;;;23.16;51.59;100381.97;4977817;28;45385;-82
2022/09/13 03:12:41;;;;;;;;;5.00;5.00;;;;;23.03;51.57;100356.88;4974438;28;45626;-71
2022/09/13 03:15:44;;;;;;;;;8.33;6.00;;;;;23.07;51.68;100363.78;4989224;28;45372;-75
2022/09/13 03:18:20;;;;;;;;;7.33;7.00;;;;;23.09;51.68;100372.56;4976313;28;45640;-82
2022/09/13 03:20:59;;;;;;;;;7.00;7.00;;;;;22.93;51.70;100355.66;4977290;28;45411;-85
2022/09/13 03:23:37;;;;;;;;;5.00;5.00;;;;;23.04;51.71;100371.94;4978256;28;45388;-86
2022/09/13 03:26:21;;;;;;;;;5.67;4.33;;;;;23.05;51.94;100371.88;4967392;28;45237;-77
2022/09/13 03:28:49;;;;;;;;;6.00;6.00;;;;;23.08;51.58;100370.84;4979182;28;46022;-69
2022/09/13 03:31:38;;;;;;;;;9.67;5.33;;;;;23.10;51.78;100366.28;4978968;28;45643;-78
2022/09/13 03:34:34;;;;;;;;;4.00;4.00;;;;;23.01;51.92;100372.97;4978374;28;45468;-74
2022/09/13 03:37:30;;;;;;;;;7.33;6.00;;;;;23.02;51.72;100376.53;4975706;28;47900;-75
2022/09/13 03:40:04;;;;;;;;;5.00;5.00;;;;;23.02;51.94;100379.22;4978136;28;45523;-69
2022/09/13 03:42:40;;;;;;;;;6.00;5.00;;;;;23.05;51.73;100377.22;4977371;28;45421;-69
2022/09/13 03:45:07;;;;;;;;;6.67;4.33;;;;;23.05;51.78;100385.22;4977262;28;45382;-68
2022/09/13 03:47:36;;;;;;;;;6.33;4.33;;;;;23.01;51.78;100377.47;4992319;28;47203;-70
2022/09/13 03:50:06;;;;;;;;;4.00;4.00;;;;;22.99;51.76;100374.00;4975818;28;45378;-75
2022/09/13 03:52:34;;;;;;;;;5.67;5.67;;;;;23.09;51.78;100385.94;4978369;28;45435;-70
2022/09/13 03:55:01;;;;;;;;;5.00;5.00;;;;;23.07;51.68;100374.47;4977862;28;45499;-72
2022/09/13 03:57:27;;;;;;;;;4.67;4.00;;;;;23.11;51.65;100380.47;4976335;28;47032;-69
2022/09/13 03:59:55;;;;;;;;;5.67;5.00;;;;;23.13;51.94;100378.59;4965003;28;45339;-72
2022/09/13 04:02:23;;;;;;;;;4.00;4.00;;;;;23.14;51.84;100366.97;4999072;28;45560;-74
2022/09/13 04:04:49;;;;;;;;;4.33;4.33;;;;;23.15;52.12;100374.03;4980877;28;45439;-74
2022/09/13 04:07:18;;;;;;;;;5.67;4.00;;;;;23.14;51.88;100370.50;4979484;28;45507;-72
2022/09/13 04:09:47;;;;;;;;;4.00;4.00;;;;;23.10;52.08;100368.09;4994280;28;45562;-77
2022/09/13 04:12:15;;;;;;;;;4.00;4.00;;;;;23.22;51.78;100384.28;4993913;28;45476;-70
2022/09/13 04:14:42;;;;;;;;;6.00;4.00;;;;;22.98;51.92;100342.91;4978402;28;45449;-70
2022/09/13 04:17:08;;;;;;;;;5.00;2.67;;;;;23.17;51.93;100373.00;4992672;28;45426;-74
2022/09/13 04:19:34;;;;;;;;;5.50;5.00;;;;;23.11;52.29;100367.97;4979876;28;45520;-76
2022/09/13 04:22:01;;;;;;;;;4.00;4.00;;;;;23.08;51.73;100347.66;4997363;28;45443;-78
2022/09/13 04:24:28;;;;;;;;;4.33;4.33;;;;;23.11;51.65;100351.09;4982527;28;45420;-86
2022/09/13 04:26:55;;;;;;;;;6.33;5.00;;;;;23.21;52.08;100371.88;4981736;28;45530;-80
2022/09/13 04:29:25;;;;;;;;;3.00;3.00;;;;;23.18;52.01;100385.41;4978071;28;45325;-70
2022/09/13 04:31:53;;;;;;;;;3.00;3.00;;;;;23.17;51.82;100391.69;4978618;28;45670;-73
2022/09/13 04:34:21;;;;;;;;;4.00;4.00;;;;;23.17;51.70;100382.81;4978503;28;45412;-71
2022/09/13 04:36:46;;;;;;;;;3.00;3.00;;;;;23.21;52.05;100379.91;4981134;28;47501;-73
2022/09/13 04:39:15;;;;;;;;;5.00;4.00;;;;;23.23;51.98;100371.78;4981410;28;45338;-78
2022/09/13 04:41:42;;;;;;;;;4.33;4.33;;;;;23.13;51.85;100351.88;4978027;28;45436;-70
2022/09/13 04:44:08;;;;;;;;;7.00;3.33;;;;;23.09;52.12;100361.88;4979285;28;45847;-69
2022/09/13 04:46:34;;;;;;;;;5.00;4.00;;;;;23.20;51.81;100390.66;4980861;28;45477;-74
2022/09/13 04:48:59;;;;;;;;;6.33;4.00;;;;;23.16;52.31;100365.94;4997125;28;45553;-69
2022/09/13 04:51:25;;;;;;;;;3.67;3.67;;;;;23.18;52.12;100369.41;5001455;28;45414;-72
2022/09/13 04:53:53;;;;;;;;;3.33;3.33;;;;;23.20;52.07;100383.50;4984716;28;45474;-77
2022/09/13 04:56:19;;;;;;;;;3.00;3.00;;;;;23.22;52.18;100388.75;4986234;28;47019;-73
2022/09/13 04:58:44;;;;;;;;;3.33;3.33;;;;;23.21;52.02;100379.91;4986601;28;45368;-70
2022/09/13 05:01:10;;;;;;;;;4.33;4.00;;;;;23.27;52.09;100386.69;5002384;28;45261;-70
2022/09/13 05:03:36;;;;;;;;;4.00;4.00;;;;;23.23;52.34;100383.34;4985723;28;45625;-72
2022/09/13 05:06:03;;;;;;;;;4.00;4.00;;;;;23.29;52.19;100384.78;4982887;28;46489;-77
2022/09/13 05:08:29;;;;;;;;;5.00;4.00;;;;;23.25;52.87;100378.78;4982706;28;45439;-69
2022/09/13 05:10:54;;;;;;;;;4.00;4.00;;;;;23.21;52.95;100369.22;4977768;28;45812;-80
2022/09/13 05:13:20;;;;;;;;;5.00;5.00;;;;;23.15;52.98;100363.34;4979305;28;45414;-82
2022/09/13 05:15:46;;;;;;;;;4.33;4.33;;;;;23.10;52.94;100363.59;4977943;28;46861;-85
2022/09/13 05:18:11;;;;;;;;;6.00;4.00;;;;;23.18;52.81;100384.53;4981180;28;45446;-82
2022/09/13 05:20:37;;;;;;;;;6.00;4.33;;;;;23.22;52.15;100396.78;4983110;28;45464;-79
2022/09/13 05:23:03;;;;;;;;;5.00;3.33;;;;;23.19;52.23;100396.97;4983588;28;45466;-75
2022/09/13 05:25:28;;;;;;;;;4.67;4.67;;;;;23.02;52.18;100365.84;4993619;28;46437;-81
2022/09/13 05:27:54;;;;;;;;;6.00;6.00;;;;;23.28;52.01;100399.97;4977169;28;45518;-78
2022/09/13 05:30:19;;;;;;;;;4.67;4.67;;;;;23.21;51.73;100373.69;4979446;28;45560;-83
2022/09/13 05:32:45;;;;;;;;;6.33;5.67;;;;;23.31;52.25;100390.91;4982536;28;45392;-83
2022/09/13 05:35:10;;;;;;;;;4.00;4.00;;;;;23.19;52.59;100392.47;4982608;28;46045;-86
2022/09/13 05:37:36;;;;;;;;;6.00;6.00;;;;;23.17;53.08;100397.03;4980252;28;45650;-78
2022/09/13 05:40:02;;;;;;;;;5.33;4.00;;;;;23.16;52.85;100381.97;4982477;28;45783;-73
2022/09/13 05:42:28;;;;;;;;;5.00;5.00;;;;;23.22;52.53;100388.75;4979410;28;45437;-78
2022/09/13 05:44:56;;;;;;;;;3.33;3.33;;;;;23.22;52.19;100386.94;4978914;28;45665;-81
2022/09/13 05:47:22;;;;;;;;;4.33;4.33;;;;;23.24;52.29;100385.06;4978222;28;45181;-72
2022/09/13 05:49:48;;;;;;;;;5.33;5.33;;;;;23.20;52.26;100371.97;4976082;28;45436;-72
2022/09/13 05:52:14;;;;;;;;;4.33;4.33;;;;;23.22;52.26;100378.94;4978524;28;45271;-74
2022/09/13 05:54:39;;;;;;;;;4.00;3.67;;;;;23.23;52.34;100379.78;4997089;28;46520;-69
2022/09/13 05:57:05;;;;;;;;;4.00;4.00;;;;;23.33;52.34;100393.53;4977739;28;45336;-72
2022/09/13 05:59:30;;;;;;;;;5.00;4.00;;;;;23.23;52.86;100375.34;4966519;28;45422;-77
2022/09/13 06:01:56;;;;;;;;;3.33;3.33;;;;;23.29;53.55;100392.81;4981240;28;45448;-76
2022/09/13 06:04:22;;;;;;;;;5.00;3.67;;;;;23.26;53.17;100387.66;4980264;28;45437;-71
2022/09/13 06:06:48;;;;;;;;;4.33;4.00;;;;;23.19;53.37;100378.25;4981639;28;45700;-71
2022/09/13 06:09:14;;;;;;;;;4.33;4.33;;;;;23.20;53.10;100371.97;4998048;28;45400;-70
2022/09/13 06:11:40;;;;;;;;;5.00;4.00;;;;;23.27;53.18;100384.03;4981683;28;45436;-69
2022/09/13 06:14:06;;;;;;;;;4.00;4.00;;;;;23.13;52.67;100352.72;4978243;28;46341;-69
2022/09/13 06:16:31;;;;;;;;;2.33;2.33;;;;;23.29;52.51;100379.47;4979296;28;45309;-79
2022/09/13 06:18:58;;;;;;;;;3.67;3.67;;;;;23.29;53.06;100380.31;4977083;28;45352;-78
2022/09/13 06:21:23;;;;;;;;;5.33;5.33;;;;;23.38;52.24;100383.44;4975175;28;45565;-69
2022/09/13 06:23:52;;;;;;;;;5.33;5.33;;;;;23.43;52.17;100373.34;4973470;28;45441;-69
2022/09/13 06:26:23;;;;;;;;;5.00;5.00;;;;;23.38;52.35;100348.69;4974423;28;45407;-71
2022/09/13 06:28:51;;;;;;;;;5.00;5.00;;;;;23.36;53.34;100355.94;4975697;28;45509;-69
2022/09/13 06:31:19;;;;;;;;;6.33;5.67;;;;;23.24;53.04;100349.47;4978150;28;45508;-72
2022/09/13 06:33:45;;;;;;;;;6.33;6.33;;;;;23.19;53.39;100352.41;4974051;28;45558;-69
2022/09/13 06:36:16;;;;;;;;;6.00;6.00;;;;;23.20;53.10;100350.59;4974354;28;45413;-71
2022/09/13 06:38:43;;;;;;;;;8.00;5.33;;;;;23.15;53.21;100341.97;4986136;28;45474;-75
2022/09/13 06:41:11;;;;;;;;;5.00;5.00;;;;;23.13;53.55;100333.19;4970351;28;45942;-72
2022/09/13 06:43:37;;;;;;;;;5.00;4.00;;;;;23.19;53.44;100327.50;4990013;28;47678;-69
2022/09/13 06:46:10;;;;;;;;;6.00;5.00;;;;;23.26;53.04;100318.19;4977267;28;45454;-71
2022/09/13 06:48:39;;;;;;;;;5.33;5.33;;;;;23.29;53.33;100321.53;4993046;28;45352;-70
2022/09/13 06:51:07;;;;;;;;;5.00;5.00;;;;;23.44;54.02;100321.59;4977142;28;45336;-73
2022/09/13 06:53:35;;;;;;;;;6.00;4.50;;;;;23.58;53.20;100318.97;4972801;28;45373;-69
2022/09/13 06:56:05;;;;;;;;;5.67;5.00;;;;;23.68;52.51;100304.13;4972371;28;45662;-71
2022/09/13 06:58:31;;;;;;;;;5.00;5.00;;;;;23.64;53.15;100297.22;4976959;28;45497;-78
2022/09/13 07:01:28;;;;;;;;;4.00;4.00;;;;;23.58;53.15;100299.41;4986530;28;45441;-72
2022/09/13 07:04:08;;;;;;;;;6.67;5.67;;;;;23.54;53.45;100295.19;4980641;28;46375;-70
2022/09/13 07:06:38;;;;;;;;;5.33;5.33;;;;;23.55;52.77;100280.88;4982175;28;45281;-76
2022/09/13 07:09:08;;;;;;;;;5.00;5.00;;;;;23.44;52.98;100284.16;4984259;28;45356;-68
2022/09/13 07:11:36;;;;;;;;;3.00;3.00;;;;;23.49;53.07;100291.00;4983955;28;45424;-80
2022/09/13 07:14:03;;;;;;;;;6.33;4.33;;;;;23.45;52.55;100289.44;4982164;28;45783;-72
2022/09/13 07:16:31;;;;;;;;;5.67;5.00;;;;;23.41;53.24;100287.88;4977730;28;45593;-71
2022/09/13 07:19:28;;;;;;;;;5.67;4.67;;;;;23.47;53.06;100278.66;4960503;28;45548;-76
2022/09/13 07:21:55;;;;;;;;;6.00;6.00;;;;;23.48;52.22;100259.84;4970297;28;46359;-70
2022/09/13 07:24:28;;;;;;;;;12.00;9.67;;;;;23.57;52.65;100279.84;4976961;28;47577;-71
2022/09/13 07:26:54;;;;;;;;;12.33;12.33;;;;;23.58;52.90;100275.34;4979712;28;45443;-69
2022/09/13 07:29:22;;;;;;;;;13.00;12.33;;;;;23.65;51.91;100280.22;4976847;28;45801;-68
2022/09/13 07:31:51;;;;;;;;;18.67;17.67;;;;;23.65;51.62;100260.66;4977340;28;45876;-75
2022/09/13 07:34:19;;;;;;;;;217.00;172.33;;;;;23.69;53.07;100275.56;4979980;28;46305;-71
2022/09/13 07:36:45;;;;;;;;;289.75;214.25;;;;;23.71;51.66;100282.53;4979512;28;45666;-69
2022/09/13 07:39:12;;;;;;;;;114.25;88.50;;;;;23.70;51.35;100285.31;4976179;28;45860;-71
2022/09/13 07:41:38;;;;;;;;;104.00;72.25;;;;;23.66;51.72;100278.44;4993699;28;45451;-70
2022/09/13 07:44:06;;;;;;;;;10.67;9.33;;;;;23.67;51.28;100283.66;4994230;28;48165;-70
2022/09/13 07:46:36;;;;;;;;;10.00;9.00;;;;;23.67;51.12;100283.66;4972095;28;45503;-70
2022/09/13 07:49:02;;;;;;;;;8.00;7.00;;;;;23.68;51.22;100288.09;4978197;28;45387;-72
2022/09/13 07:51:34;;;;;;;;;19.67;14.67;;;;;23.65;51.88;100292.75;4977108;28;45921;-75
2022/09/13 07:54:02;;;;;;;;;37.00;25.00;;;;;23.66;51.78;100289.97;4975016;28;45968;-76
2022/09/13 07:56:31;;;;;;;;;47.00;35.67;;;;;23.66;51.95;100284.63;4991338;28;45833;-70
2022/09/13 07:59:00;;;;;;;;;27.33;20.33;;;;;23.64;52.19;100275.84;4966971;28;45456;-73
2022/09/13 08:01:40;;;;;;;;;24.00;16.67;;;;;23.67;52.65;100289.03;4999095;28;45305;-69
2022/09/13 08:04:11;;;;;;;;;25.33;21.00;;;;;23.73;52.14;100294.94;4991880;28;47769;-77
2022/09/13 08:06:39;;;;;;;;;50.00;39.67;;;;;23.81;51.53;100298.94;4978116;28;45825;-73
2022/09/13 08:09:07;;;;;;;;;23.33;21.00;;;;;23.86;51.34;100296.84;4978577;28;45367;-74
2022/09/13 08:11:39;;;;;;;;;30.00;23.33;;;;;23.93;51.31;100297.31;4977986;28;45581;-71
2022/09/13 08:14:07;;;;;;;;;34.67;25.33;;;;;23.89;52.14;100298.47;4976269;28;45545;-72
2022/09/13 08:16:33;;;;;;;;;36.00;26.33;;;;;23.86;52.30;100301.31;4992055;28;45563;-70
2022/09/13 08:19:01;;;;;;;;;12.33;10.00;;;;;23.77;51.20;100293.84;4994613;28;45443;-74
2022/09/13 08:21:36;;;;;;;;;9.67;8.00;;;;;23.73;50.98;100284.25;4990885;28;45680;-71
2022/09/13 08:24:03;;;;;;;;;10.00;8.33;;;;;23.75;50.90;100295.75;4988488;28;46754;-69
2022/09/13 08:26:30;;;;;;;;;12.00;9.00;;;;;23.74;51.46;100294.03;4975926;28;45459;-80
2022/09/13 08:28:58;;;;;;;;;9.33;8.00;;;;;23.64;50.84;100267.81;4991036;28;45360;-72
2022/09/13 08:31:25;;;;;;;;;3.33;1.67;;;;;23.70;51.31;100285.31;4994002;28;45508;-71
2022/09/13 08:33:50;;;;;;;;;6.00;6.00;;;;;23.69;51.92;100283.59;4980493;28;47076;-70
2022/09/13 08:36:17;;;;;;;;;10.67;7.00;;;;;23.60;52.36;100276.97;4993421;28;45758;-69
2022/09/13 08:38:47;;;;;;;;;11.33;8.00;;;;;23.64;52.23;100288.34;4994176;28;45406;-68
2022/09/13 08:41:39;;;;;;;;;16.00;13.67;;;;;23.71;52.00;100300.41;4974921;28;45836;-73
2022/09/13 08:44:26;;;;;;;;;13.67;11.33;;;;;23.76;52.16;100300.16;4970791;28;45537;-68
2022/09/13 08:46:58;;;;;;;;;6.67;6.00;;;;;23.68;52.15;100309.47;4962474;28;45476;-68
2022/09/13 08:49:31;;;;;;;;;5.33;5.00;;;;;23.58;51.95;100313.63;4966250;28;45305;-68
2022/09/13 08:52:35;;;;;;;;;4.00;4.00;;;;;23.58;52.20;100328.81;4965329;28;45524;-69
2022/09/13 08:55:13;;;;;;;;;4.00;4.00;;;;;23.57;52.30;100329.78;4979122;28;46627;-66
2022/09/13 08:57:51;;;;;;;;;5.67;4.67;;;;;23.49;52.57;100322.19;4977618;28;45486;-68
2022/09/13 09:00:43;;;;;;;;;10.00;6.67;;;;;23.43;52.85;100320.72;4968069;28;45783;-68
2022/09/13 09:03:28;;;;;;;;;7.33;6.00;;;;;23.56;52.44;100330.69;4973506;28;45472;-69
2022/09/13 09:05:53;;;;;;;;;5.00;5.00;;;;;23.66;52.06;100334.59;4980961;28;45730;-67
2022/09/13 09:08:33;;;;;;;;;4.67;4.33;;;;;23.70;52.02;100331.63;4978111;28;45388;-66
2022/09/13 09:11:28;;;;;;;;;6.67;4.67;;;;;23.74;51.83;100328.81;4977436;28;45550;-67
2022/09/13 09:14:15;;;;;;;;;6.33;5.67;;;;;23.78;52.07;100331.22;4983953;28;45488;-67
2022/09/13 09:16:47;;;;;;;;;5.00;5.00;;;;;23.85;52.28;100351.28;4978880;28;46096;-67
2022/09/13 09:19:23;;;;;;;;;6.00;4.33;;;;;23.81;51.62;100364.94;4975012;28;45435;-74
2022/09/13 09:21:50;;;;;;;;;6.00;6.00;;;;;23.80;51.87;100365.84;4977238;28;45298;-68
2022/09/13 09:24:24;;;;;;;;;6.00;5.33;;;;;23.87;51.94;100360.09;4977755;28;45564;-73
2022/09/13 09:26:49;;;;;;;;;7.00;7.00;;;;;23.94;51.47;100355.19;4971348;28;46004;-68
2022/09/13 09:29:26;;;;;;;;;8.00;6.00;;;;;23.92;52.01;100339.28;4972085;28;45471;-74
2022/09/13 09:32:40;;;;;;;;;7.00;7.00;;;;;23.96;51.71;100339.06;4977966;28;45462;-69
2022/09/13 09:35:20;;;;;;;;;6.33;6.33;;;;;24.03;52.23;100346.63;4963561;28;45285;-70
2022/09/13 09:38:05;;;;;;;;;8.00;6.00;;;;;24.09;51.73;100340.06;4978487;28;46108;-79
2022/09/13 09:40:33;;;;;;;;;10.00;8.00;;;;;24.07;51.68;100342.81;4975331;28;45470;-67
2022/09/13 09:43:00;;;;;;;;;8.00;8.00;;;;;24.07;52.29;100353.53;4973767;28;45437;-71
2022/09/13 09:45:30;;;;;;;;;7.00;7.00;;;;;24.01;52.56;100361.06;4976038;28;45407;-68
2022/09/13 09:48:01;;;;;;;;;4.33;4.33;;;;;24.00;52.99;100360.19;4973845;28;46968;-67
2022/09/13 09:50:33;;;;;;;;;7.00;7.00;;;;;24.01;52.98;100363.72;4974154;28;45360;-68
2022/09/13 09:53:14;;;;;;;;;8.00;7.67;;;;;24.01;53.28;100355.69;4974777;28;45361;-67
2022/09/13 09:55:50;;;;;;;;;8.67;7.00;;;;;24.04;53.19;100356.41;4975402;28;45528;-67
2022/09/13 09:58:17;;;;;;;;;6.67;6.00;;;;;24.10;52.60;100361.34;4970948;28;45547;-73
2022/09/13 10:00:55;;;;;;;;;6.67;6.67;;;;;24.08;52.85;100365.97;4968000;28;45546;-64
2022/09/13 10:03:26;;;;;;;;;5.00;5.00;;;;;24.07;52.48;100358.88;4974312;28;45749;-66
2022/09/13 10:06:07;;;;;;;;;7.00;7.00;;;;;24.11;52.52;100359.56;4974451;28;45618;-70
2022/09/13 10:08:36;;;;;;;;;7.67;6.00;;;;;24.12;52.45;100367.47;4974668;28;45497;-65
2022/09/13 10:11:03;;;;;;;;;10.00;8.33;;;;;24.10;52.19;100363.19;4973854;28;45791;-65
2022/09/13 10:13:29;;;;;;;;;6.00;6.00;;;;;24.00;52.05;100368.22;4975116;28;45387;-73
2022/09/13 10:15:59;;;;;;;;;8.00;6.67;;;;;24.07;52.29;100369.56;4979833;28;45317;-66
2022/09/13 10:18:34;;;;;;;;;6.33;6.33;;;;;24.12;51.79;100374.66;4974668;28;45838;-72
2022/09/13 10:21:21;;;;;;;;;0.00;0.00;;;;;24.06;52.25;100367.88;4972579;28;45395;-71
2022/09/13 10:23:49;;;;;;;;;8.00;8.00;;;;;24.13;51.99;100371.00;4970401;28;45427;-74
2022/09/13 10:26:24;;;;;;;;;7.33;4.33;;;;;24.19;51.23;100365.31;4971940;28;45297;-76
2022/09/13 10:29:05;;;;;;;;;7.00;7.00;;;;;24.20;51.25;100363.47;4967593;28;45436;-80
2022/09/13 10:31:36;;;;;;;;;9.33;8.00;;;;;24.24;51.21;100367.69;4975160;28;45613;-70
2022/09/13 10:34:06;;;;;;;;;7.00;7.00;;;;;24.13;50.71;100338.91;4975720;28;45457;-73
2022/09/13 10:36:35;;;;;;;;;7.00;6.33;;;;;24.23;50.53;100342.75;4976468;28;45418;-72
2022/09/13 10:39:07;;;;;;;;;7.00;7.00;;;;;24.37;50.43;100354.41;4995558;28;45478;-69
2022/09/13 10:41:37;;;;;;;;;5.00;5.00;;;;;24.39;50.07;100358.72;4980939;28;45530;-67
2022/09/13 10:44:07;;;;;;;;;8.67;5.67;;;;;24.49;50.34;100354.56;4978690;28;45530;-73
2022/09/13 10:46:38;;;;;;;;;8.00;8.00;;;;;24.43;50.23;100338.84;4976360;28;45696;-76
2022/09/13 10:49:04;;;;;;;;;9.33;6.33;;;;;24.62;50.15;100343.94;4977813;28;46551;-77
2022/09/13 10:51:36;;;;;;;;;7.00;7.00;;;;;24.74;49.96;100342.31;4978902;28;45359;-79
2022/09/13 10:54:17;;;;;;;;;9.33;9.33;;;;;24.87;50.03;100342.41;4979214;28;46540;-78
2022/09/13 10:56:44;;;;;;;;;8.00;6.67;;;;;24.94;49.53;100341.91;4978325;28;45448;-76
2022/09/13 10:59:23;;;;;;;;;11.00;8.33;;;;;25.07;49.94;100341.97;4989831;28;45428;-71
2022/09/13 11:01:57;;;;;;;;;8.00;8.00;;;;;25.11;48.79;100340.81;4979639;28;45522;-71
2022/09/13 11:04:32;;;;;;;;;11.00;8.67;;;;;25.15;49.08;100328.06;4979393;28;45975;-67
2022/09/13 11:07:24;;;;;;;;;24.67;21.00;;;;;25.29;48.71;100321.84;4982904;28;45750;-70
2022/09/13 11:10:03;;;;;;;;;46.33;38.00;;;;;25.45;48.33;100316.31;4978564;28;45396;-68
2022/09/13 11:12:50;;;;;;;;;21.67;18.67;;;;;25.60;48.29;100317.97;4978980;28;45491;-73
2022/09/13 11:15:39;;;;;;;;;10.00;10.00;;;;;25.62;48.30;100305.31;4977293;28;45426;-69
2022/09/13 11:18:31;;;;;;;;;9.67;8.33;;;;;25.51;47.96;100299.84;4978564;28;45337;-72
2022/09/13 11:21:18;;;;;;;;;8.00;8.00;;;;;25.83;47.94;100316.41;4977196;28;45723;-71
2022/09/13 11:24:09;;;;;;;;;9.00;9.00;;;;;26.06;46.13;100312.19;4979013;28;45312;-71
2022/09/13 11:26:59;;;;;;;;;7.00;7.00;;;;;26.18;46.86;100313.16;4976011;28;45464;-67
2022/09/13 11:29:32;;;;;;;;;9.33;7.33;;;;;26.33;45.48;100308.53;4970831;28;45568;-66
2022/09/13 11:32:15;;;;;;;;;8.67;7.67;;;;;26.26;45.63;100313.47;4974905;28;45510;-72
2022/09/13 11:34:56;;;;;;;;;7.25;7.00;;;;;26.16;45.77;100297.16;4976967;28;45470;-67
2022/09/13 11:37:45;;;;;;;;;9.00;6.00;;;;;26.23;45.83;100298.44;4968131;28;45853;-66
2022/09/13 11:40:55;;;;;;;;;8.67;7.00;;;;;26.35;45.72;100301.22;4973421;28;45783;-69
2022/09/13 11:44:02;;;;;;;;;10.33;6.33;;;;;26.38;45.26;100307.22;4972785;28;46229;-66
2022/09/13 11:46:54;;;;;;;;;7.00;7.00;;;;;26.39;45.16;100311.63;4972625;28;45468;-72
2022/09/13 11:49:41;;;;;;;;;7.00;7.00;;;;;26.41;44.99;100308.81;4972532;28;45365;-66